createdAt,value
2024-04-13T00:00:29.491Z,50.908340
2024-04-13T00:01:29.506Z,50.908340
2024-04-13T00:02:29.472Z,50.908340
2024-04-13T00:03:29.503Z,50.908340
2024-04-13T00:04:29.485Z,50.908340
2024-04-13T00:05:29.442Z,50.908340
2024-04-13T00:06:29.438Z,50.908340
2024-04-13T00:07:29.414Z,50.908340
2024-04-13T00:08:29.404Z,50.908340
2024-04-13T00:09:29.443Z,50.908340
2024-04-13T00:10:29.395Z,50.908340
2024-04-13T00:11:29.375Z,50.908340
2024-04-13T00:12:29.511Z,50.908340
2024-04-13T00:13:29.351Z,50.908340
2024-04-13T00:14:29.359Z,50.908340
2024-04-13T00:15:29.396Z,50.908340
2024-04-13T00:16:29.378Z,50.908340
2024-04-13T00:17:29.375Z,50.908340
2024-04-13T00:18:29.330Z,50.908340
2024-04-13T00:19:29.341Z,50.908340
2024-04-13T00:20:29.347Z,50.908340
2024-04-13T00:21:29.323Z,50.908340
2024-04-13T00:22:29.300Z,50.908340
2024-04-13T00:23:29.278Z,50.908340
2024-04-13T00:24:29.459Z,50.908031
2024-04-13T00:25:29.280Z,50.908009
2024-04-13T00:26:29.249Z,50.908009
2024-04-13T00:27:29.346Z,50.908009
2024-04-13T00:28:29.294Z,50.908009
2024-04-13T00:29:29.261Z,50.908161
2024-04-13T00:30:29.235Z,50.908161
2024-04-13T00:31:29.340Z,50.908199
2024-04-13T00:32:29.230Z,50.908199
2024-04-13T00:33:29.342Z,50.908245
2024-04-13T00:34:29.220Z,50.908146
2024-04-13T00:35:29.203Z,50.907955
2024-04-13T00:36:29.221Z,50.908173
2024-04-13T00:37:32.253Z,50.908165
2024-04-13T00:38:30.200Z,50.908119
2024-04-13T00:39:29.183Z,50.908043
2024-04-13T00:40:29.156Z,50.908127
2024-04-13T00:41:29.139Z,50.908058
2024-04-13T00:42:29.183Z,50.908058
2024-04-13T00:43:29.153Z,50.908203
2024-04-13T00:44:29.124Z,50.907951
2024-04-13T00:45:29.205Z,50.908005
2024-04-13T00:46:29.112Z,50.908051
2024-04-13T00:47:29.198Z,50.908039
2024-04-13T00:48:29.308Z,50.908268
2024-04-13T00:49:29.084Z,50.908409
2024-04-13T00:50:29.072Z,50.908272
2024-04-13T00:51:29.105Z,50.908195
2024-04-13T00:52:29.101Z,50.908096
2024-04-13T00:53:29.068Z,50.908073
2024-04-13T00:54:29.143Z,50.908176
2024-04-13T00:55:29.039Z,50.908119
2024-04-13T00:56:29.027Z,50.908005
2024-04-13T00:57:29.070Z,50.908031
2024-04-13T00:58:29.015Z,50.908024
2024-04-13T00:59:29.022Z,50.908051
2024-04-13T01:00:29.101Z,50.908039
2024-04-13T01:01:28.990Z,50.908070
2024-04-13T01:02:29.010Z,50.908096
2024-04-13T01:03:29.197Z,50.908112
2024-04-13T01:04:28.961Z,50.908112
2024-04-13T01:05:28.962Z,50.908092
2024-04-13T01:06:29.003Z,50.908104
2024-04-13T01:07:28.969Z,50.908127
2024-04-13T01:08:28.932Z,50.908104
2024-04-13T01:09:28.965Z,50.908112
2024-04-13T01:10:28.914Z,50.908127
2024-04-13T01:11:28.962Z,50.908119
2024-04-13T01:12:28.950Z,50.908112
2024-04-13T01:13:28.901Z,50.908131
2024-04-13T01:14:28.888Z,50.908134
2024-04-13T01:15:28.925Z,50.908161
2024-04-13T01:16:28.922Z,50.908157
2024-04-13T01:17:28.900Z,50.908104
2024-04-13T01:18:28.922Z,50.908115
2024-04-13T01:19:28.854Z,50.908127
2024-04-13T01:20:28.865Z,50.908142
2024-04-13T01:21:28.859Z,50.908119
2024-04-13T01:22:28.829Z,50.908123
2024-04-13T01:23:28.820Z,50.908108
2024-04-13T01:24:28.844Z,50.908184
2024-04-13T01:25:28.826Z,50.908142
2024-04-13T01:26:28.819Z,50.908039
2024-04-13T01:27:28.824Z,50.908104
2024-04-13T01:28:30.965Z,50.908142
2024-04-13T01:29:29.795Z,50.908165
2024-04-13T01:30:28.797Z,50.908108
2024-04-13T01:31:28.756Z,50.908096
2024-04-13T01:32:28.941Z,50.908104
2024-04-13T01:33:28.802Z,50.908146
2024-04-13T01:34:28.749Z,50.908119
2024-04-13T01:35:28.748Z,50.908260
2024-04-13T01:36:28.761Z,50.908314
2024-04-13T01:37:28.720Z,50.908215
2024-04-13T01:38:28.705Z,50.908051
2024-04-13T01:39:28.719Z,50.908276
2024-04-13T01:40:28.720Z,50.908379
2024-04-13T01:41:28.686Z,50.908237
2024-04-13T01:42:28.722Z,50.908108
2024-04-13T01:43:28.668Z,50.908070
2024-04-13T01:44:28.726Z,50.908134
2024-04-13T01:45:28.701Z,50.908249
2024-04-13T01:46:28.646Z,50.908157
2024-04-13T01:47:28.739Z,50.908169
2024-04-13T01:48:28.703Z,50.908066
2024-04-13T01:49:28.668Z,50.908031
2024-04-13T01:50:28.610Z,50.908150
2024-04-13T01:51:28.650Z,50.908150
2024-04-13T01:52:28.594Z,50.908115
2024-04-13T01:53:28.585Z,50.908207
2024-04-13T01:54:28.642Z,50.908188
2024-04-13T01:55:28.570Z,50.907970
2024-04-13T01:56:28.566Z,50.908024
2024-04-13T01:57:28.600Z,50.908058
2024-04-13T01:58:28.561Z,50.908176
2024-04-13T01:59:28.574Z,50.908180
2024-04-13T02:00:28.670Z,50.908184
2024-04-13T02:01:28.572Z,50.908115
2024-04-13T02:02:28.559Z,50.908134
2024-04-13T02:03:28.625Z,50.908115
2024-04-13T02:04:28.536Z,50.908104
2024-04-13T02:05:28.540Z,50.908226
2024-04-13T02:06:28.519Z,50.908127
2024-04-13T02:07:28.483Z,50.908115
2024-04-13T02:08:28.517Z,50.908127
2024-04-13T02:09:29.560Z,50.908138
2024-04-13T02:10:28.476Z,50.908154
2024-04-13T02:11:28.512Z,50.908157
2024-04-13T02:12:28.488Z,50.908123
2024-04-13T02:13:28.477Z,50.908138
2024-04-13T02:14:28.422Z,50.908146
2024-04-13T02:15:28.459Z,50.908138
2024-04-13T02:16:28.422Z,50.908131
2024-04-13T02:17:28.439Z,50.908119
2024-04-13T02:18:28.551Z,50.908215
2024-04-13T02:19:28.453Z,50.908157
2024-04-13T02:20:28.382Z,50.908146
2024-04-13T02:21:28.389Z,50.908241
2024-04-13T02:22:28.413Z,50.908165
2024-04-13T02:23:28.358Z,50.908207
2024-04-13T02:24:28.383Z,50.908073
2024-04-13T02:25:28.367Z,50.908100
2024-04-13T02:26:28.327Z,50.908279
2024-04-13T02:27:29.392Z,50.908215
2024-04-13T02:28:28.311Z,50.908211
2024-04-13T02:29:28.308Z,50.908100
2024-04-13T02:30:28.337Z,50.908161
2024-04-13T02:31:28.306Z,50.908146
2024-04-13T02:32:28.343Z,50.908169
2024-04-13T02:33:28.371Z,50.908207
2024-04-13T02:34:28.282Z,50.908176
2024-04-13T02:35:28.257Z,50.908173
2024-04-13T02:36:28.330Z,50.908161
2024-04-13T02:37:28.267Z,50.908150
2024-04-13T02:38:28.230Z,50.908070
2024-04-13T02:39:28.248Z,50.908108
2024-04-13T02:40:28.222Z,50.908157
2024-04-13T02:41:28.314Z,50.908199
2024-04-13T02:42:28.226Z,50.908146
2024-04-13T02:43:28.197Z,50.908154
2024-04-13T02:44:28.192Z,50.908157
2024-04-13T02:45:28.182Z,50.908150
2024-04-13T02:46:28.219Z,50.908131
2024-04-13T02:47:28.184Z,50.908260
2024-04-13T02:48:28.295Z,50.908237
2024-04-13T02:49:28.196Z,50.908199
2024-04-13T02:50:28.138Z,50.908108
2024-04-13T02:51:28.210Z,50.908150
2024-04-13T02:52:28.122Z,50.908112
2024-04-13T02:53:28.117Z,50.908226
2024-04-13T02:54:28.139Z,50.908249
2024-04-13T02:55:28.130Z,50.908028
2024-04-13T02:56:28.139Z,50.908077
2024-04-13T02:57:28.107Z,50.908112
2024-04-13T02:58:28.087Z,50.908115
2024-04-13T02:59:28.086Z,50.908203
2024-04-13T03:00:28.098Z,50.908077
2024-04-13T03:01:28.095Z,50.908134
2024-04-13T03:02:28.070Z,50.908218
2024-04-13T03:03:28.159Z,50.908142
2024-04-13T03:04:28.095Z,50.908092
2024-04-13T03:05:28.031Z,50.908165
2024-04-13T03:06:28.098Z,50.908035
2024-04-13T03:07:28.016Z,50.908237
2024-04-13T03:08:28.006Z,50.908249
2024-04-13T03:09:28.074Z,50.908134
2024-04-13T03:10:28.015Z,50.908146
2024-04-13T03:11:28.085Z,50.908077
2024-04-13T03:12:28.110Z,50.908062
2024-04-13T03:13:27.961Z,50.908073
2024-04-13T03:14:27.954Z,50.908215
2024-04-13T03:15:27.985Z,50.908176
2024-04-13T03:16:28.963Z,50.908279
2024-04-13T03:17:28.043Z,50.908134
2024-04-13T03:18:27.949Z,50.908028
2024-04-13T03:19:27.923Z,50.908134
2024-04-13T03:20:27.933Z,50.908054
2024-04-13T03:21:27.928Z,50.908089
2024-04-13T03:22:27.893Z,50.908081
2024-04-13T03:23:27.886Z,50.908062
2024-04-13T03:24:27.933Z,50.908138
2024-04-13T03:25:27.895Z,50.908119
2024-04-13T03:26:27.893Z,50.908123
2024-04-13T03:27:27.910Z,50.908089
2024-04-13T03:28:27.856Z,50.908230
2024-04-13T03:29:27.889Z,50.908207
2024-04-13T03:30:27.897Z,50.908039
2024-04-13T03:31:27.857Z,50.907936
2024-04-13T03:32:27.922Z,50.907936
2024-04-13T03:33:27.881Z,50.907936
2024-04-13T03:34:27.828Z,50.908234
2024-04-13T03:35:27.792Z,50.908260
2024-04-13T03:36:27.832Z,50.908188
2024-04-13T03:37:27.788Z,50.908184
2024-04-13T03:38:27.788Z,50.908031
2024-04-13T03:39:27.832Z,50.908279
2024-04-13T03:40:27.764Z,50.908192
2024-04-13T03:41:27.775Z,50.908016
2024-04-13T03:42:27.770Z,50.908016
2024-04-13T03:43:27.747Z,50.908016
2024-04-13T03:44:27.756Z,50.908016
2024-04-13T03:45:27.786Z,50.908016
2024-04-13T03:46:27.730Z,50.907887
2024-04-13T03:47:27.780Z,50.908085
2024-04-13T03:48:27.862Z,50.908188
2024-04-13T03:49:27.692Z,50.908169
2024-04-13T03:50:27.674Z,50.908100
2024-04-13T03:51:27.709Z,50.908100
2024-04-13T03:52:27.672Z,50.908100
2024-04-13T03:53:27.702Z,50.908100
2024-04-13T03:54:27.687Z,50.908123
2024-04-13T03:55:27.630Z,50.908142
2024-04-13T03:56:28.640Z,50.908108
2024-04-13T03:57:27.648Z,50.908127
2024-04-13T03:58:27.641Z,50.908184
2024-04-13T03:59:27.619Z,50.908154
2024-04-13T04:00:27.706Z,50.908131
2024-04-13T04:01:27.752Z,50.908127
2024-04-13T04:02:27.607Z,50.908131
2024-04-13T04:03:27.646Z,50.908096
2024-04-13T04:04:27.709Z,50.908176
2024-04-13T04:05:27.594Z,50.908169
2024-04-13T04:06:27.658Z,50.908154
2024-04-13T04:07:27.571Z,50.908173
2024-04-13T04:08:27.538Z,50.908169
2024-04-13T04:09:27.562Z,50.908165
2024-04-13T04:10:28.531Z,50.908176
2024-04-13T04:11:27.546Z,50.908169
2024-04-13T04:12:27.584Z,50.908169
2024-04-13T04:13:27.526Z,50.908157
2024-04-13T04:14:27.523Z,50.908192
2024-04-13T04:15:27.621Z,50.908203
2024-04-13T04:16:27.490Z,50.908154
2024-04-13T04:17:27.648Z,50.908131
2024-04-13T04:18:27.636Z,50.908146
2024-04-13T04:19:27.579Z,50.908169
2024-04-13T04:20:27.587Z,50.908150
2024-04-13T04:21:27.571Z,50.908123
2024-04-13T04:22:27.533Z,50.908123
2024-04-13T04:23:27.500Z,50.908119
2024-04-13T04:24:27.471Z,50.908112
2024-04-13T04:25:27.415Z,50.908119
2024-04-13T04:26:27.461Z,50.908058
2024-04-13T04:27:27.418Z,50.908100
2024-04-13T04:28:27.404Z,50.908142
2024-04-13T04:29:27.377Z,50.908131
2024-04-13T04:30:27.425Z,50.908119
2024-04-13T04:31:27.407Z,50.908157
2024-04-13T04:32:27.396Z,50.908142
2024-04-13T04:33:27.516Z,50.908146
2024-04-13T04:34:27.340Z,50.908154
2024-04-13T04:35:27.357Z,50.908161
2024-04-13T04:36:27.414Z,50.908138
2024-04-13T04:37:27.318Z,50.908142
2024-04-13T04:38:27.306Z,50.908157
2024-04-13T04:39:27.381Z,50.908138
2024-04-13T04:40:27.308Z,50.908150
2024-04-13T04:41:27.422Z,50.908150
2024-04-13T04:42:27.311Z,50.908150
2024-04-13T04:43:27.286Z,50.908150
2024-04-13T04:44:27.272Z,50.908184
2024-04-13T04:45:27.286Z,50.908154
2024-04-13T04:46:27.307Z,50.908150
2024-04-13T04:47:27.337Z,50.908150
2024-04-13T04:48:27.370Z,50.908138
2024-04-13T04:49:27.220Z,50.908127
2024-04-13T04:50:27.252Z,50.908142
2024-04-13T04:51:27.227Z,50.908146
2024-04-13T04:52:27.206Z,50.908134
2024-04-13T04:53:27.221Z,50.908134
2024-04-13T04:54:27.232Z,50.908176
2024-04-13T04:55:27.209Z,50.908142
2024-04-13T04:56:27.172Z,50.908150
2024-04-13T04:57:27.168Z,50.908169
2024-04-13T04:58:27.146Z,50.908184
2024-04-13T04:59:27.143Z,50.908176
2024-04-13T05:00:27.255Z,50.908169
2024-04-13T05:01:27.185Z,50.908161
2024-04-13T05:02:27.160Z,50.908131
2024-04-13T05:03:27.165Z,50.908150
2024-04-13T05:04:27.182Z,50.908108
2024-04-13T05:05:27.132Z,50.908195
2024-04-13T05:06:27.166Z,50.908157
2024-04-13T05:07:27.088Z,50.908215
2024-04-13T05:08:27.077Z,50.908127
2024-04-13T05:09:27.160Z,50.908138
2024-04-13T05:10:27.102Z,50.908127
2024-04-13T05:11:27.059Z,50.908134
2024-04-13T05:12:27.050Z,50.908104
2024-04-13T05:13:27.035Z,50.908077
2024-04-13T05:14:27.054Z,50.908089
2024-04-13T05:15:27.056Z,50.908146
2024-04-13T05:16:27.010Z,50.908184
2024-04-13T05:17:27.051Z,50.908142
2024-04-13T05:18:27.248Z,50.908161
2024-04-13T05:19:27.130Z,50.908157
2024-04-13T05:20:26.990Z,50.908108
2024-04-13T05:21:26.987Z,50.908295
2024-04-13T05:22:26.978Z,50.908192
2024-04-13T05:23:27.000Z,50.908146
2024-04-13T05:24:27.074Z,50.908146
2024-04-13T05:25:26.950Z,50.908131
2024-04-13T05:26:26.966Z,50.908096
2024-04-13T05:27:26.979Z,50.908089
2024-04-13T05:28:26.947Z,50.908081
2024-04-13T05:29:26.914Z,50.908134
2024-04-13T05:30:26.977Z,50.908146
2024-04-13T05:31:26.894Z,50.908123
2024-04-13T05:32:26.938Z,50.908062
2024-04-13T05:33:27.022Z,50.908051
2024-04-13T05:34:26.871Z,50.908070
2024-04-13T05:35:26.871Z,50.908085
2024-04-13T05:36:26.904Z,50.908077
2024-04-13T05:37:26.874Z,50.908070
2024-04-13T05:38:26.879Z,50.908035
2024-04-13T05:39:26.885Z,50.908066
2024-04-13T05:40:26.830Z,50.908085
2024-04-13T05:41:26.830Z,50.908081
2024-04-13T05:42:26.848Z,50.908043
2024-04-13T05:43:26.797Z,50.908035
2024-04-13T05:44:26.805Z,50.908070
2024-04-13T05:45:26.808Z,50.908062
2024-04-13T05:46:26.801Z,50.908062
2024-04-13T05:47:58.740Z,50.908104
2024-04-13T05:48:26.812Z,50.908051
2024-04-13T05:49:26.758Z,50.908081
2024-04-13T05:50:26.808Z,50.908092
2024-04-13T05:51:26.793Z,50.908047
2024-04-13T05:52:26.756Z,50.908066
2024-04-13T05:53:26.772Z,50.908062
2024-04-13T05:54:26.744Z,50.908073
2024-04-13T05:55:26.712Z,50.908066
2024-04-13T05:56:26.717Z,50.908062
2024-04-13T05:57:27.745Z,50.908058
2024-04-13T05:58:26.687Z,50.908077
2024-04-13T05:59:26.685Z,50.908051
2024-04-13T06:00:26.760Z,50.908058
2024-04-13T06:01:26.718Z,50.908009
2024-04-13T06:02:26.674Z,50.908024
2024-04-13T06:03:26.653Z,50.908012
2024-04-13T06:04:26.702Z,50.908066
2024-04-13T06:05:26.706Z,50.908066
2024-04-13T06:06:26.685Z,50.908104
2024-04-13T06:07:26.616Z,50.908031
2024-04-13T06:08:26.623Z,50.908005
2024-04-13T06:09:26.629Z,50.908031
2024-04-13T06:10:26.649Z,50.908051
2024-04-13T06:11:26.629Z,50.908016
2024-04-13T06:12:26.620Z,50.908031
2024-04-13T06:13:26.590Z,50.908062
2024-04-13T06:14:26.582Z,50.908085
2024-04-13T06:15:26.619Z,50.908009
2024-04-13T06:16:26.658Z,50.908012
2024-04-13T06:17:26.554Z,50.908035
2024-04-13T06:18:26.564Z,50.908081
2024-04-13T06:19:26.545Z,50.908031
2024-04-13T06:20:26.552Z,50.908020
2024-04-13T06:21:26.563Z,50.908009
2024-04-13T06:22:26.508Z,50.907970
2024-04-13T06:23:26.504Z,50.907932
2024-04-13T06:24:26.590Z,50.907993
2024-04-13T06:25:28.690Z,50.908016
2024-04-13T06:26:27.481Z,50.908062
2024-04-13T06:27:26.537Z,50.908047
2024-04-13T06:28:26.469Z,50.908035
2024-04-13T06:29:26.492Z,50.908058
2024-04-13T06:30:26.459Z,50.908058
2024-04-13T06:31:27.446Z,50.908096
2024-04-13T06:32:26.441Z,50.908062
2024-04-13T06:33:26.492Z,50.908062
2024-04-13T06:34:26.507Z,50.908100
2024-04-13T06:35:26.419Z,50.908092
2024-04-13T06:36:26.424Z,50.908100
2024-04-13T06:37:26.415Z,50.908123
2024-04-13T06:38:26.429Z,50.908066
2024-04-13T06:39:26.463Z,50.908051
2024-04-13T06:40:27.390Z,50.908096
2024-04-13T06:41:26.380Z,50.908096
2024-04-13T06:42:26.383Z,50.908092
2024-04-13T06:43:26.412Z,50.908089
2024-04-13T06:44:26.355Z,50.908096
2024-04-13T06:45:26.369Z,50.908112
2024-04-13T06:46:26.374Z,50.908054
2024-04-13T06:47:26.358Z,50.908081
2024-04-13T06:48:26.370Z,50.908104
2024-04-13T06:49:26.342Z,50.908108
2024-04-13T06:50:26.318Z,50.908104
2024-04-13T06:51:26.306Z,50.908100
2024-04-13T06:52:26.303Z,50.908104
2024-04-13T06:53:26.324Z,50.908081
2024-04-13T06:54:26.313Z,50.908154
2024-04-13T06:55:26.285Z,50.908096
2024-04-13T06:56:26.297Z,50.908112
2024-04-13T06:57:26.306Z,50.908100
2024-04-13T06:58:26.293Z,50.908104
2024-04-13T06:59:26.257Z,50.908115
2024-04-13T07:00:26.257Z,50.908085
2024-04-13T07:01:26.265Z,50.908138
2024-04-13T07:02:26.281Z,50.908138
2024-04-13T07:03:26.378Z,50.908131
2024-04-13T07:04:26.301Z,50.908112
2024-04-13T07:05:26.213Z,50.908112
2024-04-13T07:06:26.232Z,50.908066
2024-04-13T07:07:26.261Z,50.908112
2024-04-13T07:08:27.200Z,50.908131
2024-04-13T07:09:26.204Z,50.908112
2024-04-13T07:10:26.176Z,50.908119
2024-04-13T07:11:26.184Z,50.908115
2024-04-13T07:12:26.204Z,50.908131
2024-04-13T07:13:26.154Z,50.908146
2024-04-13T07:14:26.155Z,50.908131
2024-04-13T07:15:26.165Z,50.908112
2024-04-13T07:16:26.190Z,50.908146
2024-04-13T07:17:26.173Z,50.908108
2024-04-13T07:18:26.154Z,50.908131
2024-04-13T07:19:26.137Z,50.908100
2024-04-13T07:20:26.107Z,50.908112
2024-04-13T07:21:26.167Z,50.908115
2024-04-13T07:22:26.098Z,50.908096
2024-04-13T07:23:26.099Z,50.908108
2024-04-13T07:24:26.109Z,50.908112
2024-04-13T07:25:26.091Z,50.908092
2024-04-13T07:26:26.115Z,50.908066
2024-04-13T07:27:26.112Z,50.908100
2024-04-13T07:28:26.059Z,50.908131
2024-04-13T07:29:26.051Z,50.908161
2024-04-13T07:30:26.143Z,50.908123
2024-04-13T07:31:26.067Z,50.908108
2024-04-13T07:32:26.108Z,50.908115
2024-04-13T07:33:26.133Z,50.908134
2024-04-13T07:34:26.027Z,50.908123
2024-04-13T07:35:26.040Z,50.908134
2024-04-13T07:36:26.051Z,50.908115
2024-04-13T07:37:25.999Z,50.908066
2024-04-13T07:38:26.038Z,50.908077
2024-04-13T07:39:26.026Z,50.908077
2024-04-13T07:40:26.040Z,50.908077
2024-04-13T07:41:25.966Z,50.908077
2024-04-13T07:42:26.038Z,50.908108
2024-04-13T07:43:25.977Z,50.908123
2024-04-13T07:44:25.950Z,50.908115
2024-04-13T07:45:26.015Z,50.908081
2024-04-13T07:46:25.943Z,50.908108
2024-04-13T07:47:26.019Z,50.908092
2024-04-13T07:48:26.127Z,50.908081
2024-04-13T07:49:25.951Z,50.908096
2024-04-13T07:50:25.969Z,50.908104
2024-04-13T07:51:25.934Z,50.908096
2024-04-13T07:52:25.908Z,50.908115
2024-04-13T07:53:25.894Z,50.908146
2024-04-13T07:54:25.933Z,50.908112
2024-04-13T07:55:25.901Z,50.908096
2024-04-13T07:56:25.895Z,50.908073
2024-04-13T07:57:25.895Z,50.908146
2024-04-13T07:58:25.883Z,50.908188
2024-04-13T07:59:25.882Z,50.908157
2024-04-13T08:00:25.893Z,50.908161
2024-04-13T08:01:25.873Z,50.908127
2024-04-13T08:02:25.848Z,50.908112
2024-04-13T08:03:26.070Z,50.908138
2024-04-13T08:04:25.992Z,50.908176
2024-04-13T08:05:25.808Z,50.908241
2024-04-13T08:06:25.810Z,50.908218
2024-04-13T08:07:25.810Z,50.908218
2024-04-13T08:08:25.787Z,50.908218
2024-04-13T08:09:25.851Z,50.908012
2024-04-13T08:10:25.787Z,50.908104
2024-04-13T08:11:25.772Z,50.908150
2024-04-13T08:12:25.778Z,50.908245
2024-04-13T08:13:26.787Z,50.908318
2024-04-13T08:14:25.777Z,50.908279
2024-04-13T08:15:25.762Z,50.908134
2024-04-13T08:16:25.764Z,50.908237
2024-04-13T08:17:25.741Z,50.908287
2024-04-13T08:18:25.787Z,50.908234
2024-04-13T08:19:25.722Z,50.908207
2024-04-13T08:20:25.712Z,50.908188
2024-04-13T08:21:25.785Z,50.908188
2024-04-13T08:22:25.706Z,50.908253
2024-04-13T08:23:25.706Z,50.908195
2024-04-13T08:24:25.696Z,50.908215
2024-04-13T08:25:25.669Z,50.908180
2024-04-13T08:26:25.674Z,50.908085
2024-04-13T08:27:25.692Z,50.908192
2024-04-13T08:28:26.680Z,50.908226
2024-04-13T08:29:25.643Z,50.908089
2024-04-13T08:30:25.708Z,50.908028
2024-04-13T08:31:25.702Z,50.908043
2024-04-13T08:32:25.652Z,50.907986
2024-04-13T08:33:25.744Z,50.908100
2024-04-13T08:34:25.617Z,50.907925
2024-04-13T08:35:25.615Z,50.908016
2024-04-13T08:36:25.654Z,50.908241
2024-04-13T08:37:25.627Z,50.908165
2024-04-13T08:38:25.593Z,50.908085
2024-04-13T08:39:25.624Z,50.908142
2024-04-13T08:40:25.578Z,50.908104
2024-04-13T08:41:25.564Z,50.908062
2024-04-13T08:42:25.605Z,50.908249
2024-04-13T08:43:25.553Z,50.908302
2024-04-13T08:44:25.548Z,50.908302
2024-04-13T08:45:25.569Z,50.908558
2024-04-13T08:46:25.526Z,50.908653
2024-04-13T08:47:25.546Z,50.908516
2024-04-13T08:48:25.646Z,50.908604
2024-04-13T08:49:25.590Z,50.908592
2024-04-13T08:50:25.499Z,50.908390
2024-04-13T08:51:25.587Z,50.908264
2024-04-13T08:52:25.515Z,50.908283
2024-04-13T08:53:25.489Z,50.908337
2024-04-13T08:54:25.511Z,50.908245
2024-04-13T08:55:25.497Z,50.908226
2024-04-13T08:56:25.508Z,50.908241
2024-04-13T08:57:25.525Z,50.908245
2024-04-13T08:58:25.446Z,50.908180
2024-04-13T08:59:25.456Z,50.908188
2024-04-13T09:00:25.480Z,50.908161
2024-04-13T09:01:25.525Z,50.908237
2024-04-13T09:02:25.522Z,50.908314
2024-04-13T09:03:25.579Z,50.908241
2024-04-13T09:04:25.454Z,50.908188
2024-04-13T09:05:25.430Z,50.908169
2024-04-13T09:06:25.436Z,50.908195
2024-04-13T09:07:27.499Z,50.908127
2024-04-13T09:08:26.384Z,50.908146
2024-04-13T09:09:25.417Z,50.908112
2024-04-13T09:10:25.399Z,50.908092
2024-04-13T09:11:25.389Z,50.907940
2024-04-13T09:12:25.366Z,50.908009
2024-04-13T09:13:25.346Z,50.908012
2024-04-13T09:14:25.333Z,50.908001
2024-04-13T09:15:25.439Z,50.907993
2024-04-13T09:16:25.320Z,50.908012
2024-04-13T09:17:25.357Z,50.908028
2024-04-13T09:18:25.431Z,50.908077
2024-04-13T09:19:25.349Z,50.908031
2024-04-13T09:20:25.309Z,50.908096
2024-04-13T09:21:25.317Z,50.908077
2024-04-13T09:22:25.296Z,50.908073
2024-04-13T09:23:25.267Z,50.908016
2024-04-13T09:24:25.309Z,50.908035
2024-04-13T09:25:25.260Z,50.908104
2024-04-13T09:26:25.255Z,50.908108
2024-04-13T09:27:25.331Z,50.908108
2024-04-13T09:28:25.232Z,50.908051
2024-04-13T09:29:25.244Z,50.908043
2024-04-13T09:30:25.244Z,50.908092
2024-04-13T09:31:25.217Z,50.908119
2024-04-13T09:32:25.674Z,50.908207
2024-04-13T09:33:25.335Z,50.908115
2024-04-13T09:34:25.218Z,50.908104
2024-04-13T09:35:25.237Z,50.908066
2024-04-13T09:36:25.243Z,50.908070
2024-04-13T09:37:25.168Z,50.908092
2024-04-13T09:38:25.214Z,50.908092
2024-04-13T09:39:25.202Z,50.908112
2024-04-13T09:40:26.145Z,50.908146
2024-04-13T09:41:25.133Z,50.908115
2024-04-13T09:42:25.186Z,50.908176
2024-04-13T09:43:25.139Z,50.908142
2024-04-13T09:44:25.127Z,50.908131
2024-04-13T09:45:25.192Z,50.908154
2024-04-13T09:46:25.101Z,50.908161
2024-04-13T09:47:25.098Z,50.908123
2024-04-13T09:48:25.179Z,50.908131
2024-04-13T09:49:25.205Z,50.908142
2024-04-13T09:50:25.064Z,50.908096
2024-04-13T09:51:25.062Z,50.908123
2024-04-13T09:52:25.075Z,50.908146
2024-04-13T09:53:25.073Z,50.908115
2024-04-13T09:54:25.039Z,50.908112
2024-04-13T09:55:25.071Z,50.908131
2024-04-13T09:56:25.020Z,50.908161
2024-04-13T09:57:25.062Z,50.908154
2024-04-13T09:58:25.009Z,50.908165
2024-04-13T09:59:25.001Z,50.908142
2024-04-13T10:00:25.134Z,50.908150
2024-04-13T10:01:25.187Z,50.908119
2024-04-13T10:02:25.091Z,50.908123
2024-04-13T10:03:25.154Z,50.908154
2024-04-13T10:04:25.021Z,50.908146
2024-04-13T10:05:24.960Z,50.908142
2024-04-13T10:06:24.985Z,50.908134
2024-04-13T10:07:24.985Z,50.908112
2024-04-13T10:08:24.931Z,50.908119
2024-04-13T10:09:24.997Z,50.908112
2024-04-13T10:10:24.930Z,50.908119
2024-04-13T10:11:24.972Z,50.908119
2024-04-13T10:12:24.941Z,50.908127
2024-04-13T10:13:24.909Z,50.908115
2024-04-13T10:14:24.915Z,50.908142
2024-04-13T10:15:24.920Z,50.908123
2024-04-13T10:16:24.905Z,50.908096
2024-04-13T10:17:24.922Z,50.908104
2024-04-13T10:18:27.154Z,50.908123
2024-04-13T10:19:25.846Z,50.908115
2024-04-13T10:20:24.875Z,50.908138
2024-04-13T10:21:24.898Z,50.908123
2024-04-13T10:22:32.277Z,50.908134
2024-04-13T10:23:25.820Z,50.908146
2024-04-13T10:24:24.853Z,50.908142
2024-04-13T10:25:24.832Z,50.908134
2024-04-13T10:26:24.815Z,50.908134
2024-04-13T10:27:24.819Z,50.908134
2024-04-13T10:28:24.787Z,50.908138
2024-04-13T10:29:24.800Z,50.908104
2024-04-13T10:30:24.809Z,50.908138
2024-04-13T10:31:25.801Z,50.908134
2024-04-13T10:32:24.762Z,50.908142
2024-04-13T10:33:24.798Z,50.908207
2024-04-13T10:34:24.768Z,50.908234
2024-04-13T10:35:24.758Z,50.908211
2024-04-13T10:36:24.753Z,50.908188
2024-04-13T10:37:24.720Z,50.908131
2024-04-13T10:38:24.704Z,50.908157
2024-04-13T10:39:24.765Z,50.908092
2024-04-13T10:40:24.714Z,50.908127
2024-04-13T10:41:24.687Z,50.908123
2024-04-13T10:42:24.678Z,50.908127
2024-04-13T10:43:24.669Z,50.908207
2024-04-13T10:44:24.741Z,50.908161
2024-04-13T10:45:24.690Z,50.908161
2024-04-13T10:46:24.642Z,50.908142
2024-04-13T10:47:24.675Z,50.908047
2024-04-13T10:48:24.705Z,50.908134
2024-04-13T10:49:24.710Z,50.908146
2024-04-13T10:50:24.614Z,50.908176
2024-04-13T10:51:24.650Z,50.908157
2024-04-13T10:52:24.613Z,50.908260
2024-04-13T10:53:24.616Z,50.908230
2024-04-13T10:54:24.666Z,50.908146
2024-04-13T10:55:24.571Z,50.908138
2024-04-13T10:56:24.573Z,50.908157
2024-04-13T10:57:24.596Z,50.908092
2024-04-13T10:58:24.576Z,50.908066
2024-04-13T10:59:24.542Z,50.908081
2024-04-13T11:00:24.563Z,50.908119
2024-04-13T11:01:24.638Z,50.908108
2024-04-13T11:02:24.539Z,50.908073
2024-04-13T11:03:24.600Z,50.908089
2024-04-13T11:04:24.509Z,50.908077
2024-04-13T11:05:24.496Z,50.908112
2024-04-13T11:06:24.506Z,50.908104
2024-04-13T11:07:24.488Z,50.908192
2024-04-13T11:08:24.500Z,50.908192
2024-04-13T11:09:24.500Z,50.908157
2024-04-13T11:10:24.480Z,50.908100
2024-04-13T11:11:24.469Z,50.908104
2024-04-13T11:12:24.481Z,50.908112
2024-04-13T11:13:24.468Z,50.908146
2024-04-13T11:14:24.428Z,50.908127
2024-04-13T11:15:24.473Z,50.908123
2024-04-13T11:16:24.417Z,50.908157
2024-04-13T11:17:24.520Z,50.908157
2024-04-13T11:18:24.534Z,50.908096
2024-04-13T11:19:24.449Z,50.908157
2024-04-13T11:20:24.382Z,50.908150
2024-04-13T11:21:24.427Z,50.908165
2024-04-13T11:22:24.401Z,50.908150
2024-04-13T11:23:24.368Z,50.908165
2024-04-13T11:24:24.385Z,50.908108